RYR24T EIDW-EGPH
Flight info
| Callsign | RYR24T |
|---|---|
| Flight time | 0h 35m |
| Altitude | 25000 |
| Route | ROTEV8E ROTEV P600 TUNSO |
| Aircraft | B38M/M-SDE1FGHILORVWXY/HB1 |
Departure
| Time | 2026-04-24 12:34 |
|---|---|
| Airport | Dublin Airport (EIDW) |
Arrival
| Time | 2026-04-24 13:09 |
|---|---|
| Airport | Edinburgh Airport (EGPH) |
| Time | Latitude | Longitude | Altitude | Speed | Heading |
|---|---|---|---|---|---|
| 2026-04-24 12:09 | 53.43288 | -6.24995 | 213 ft | 0 kts | 5° |
| 2026-04-24 12:16 | 53.43266 | -6.24996 | 213 ft | 4 kts | 357° |
| 2026-04-24 12:17 | 53.43239 | -6.24990 | 213 ft | 4 kts | 340° |
| 2026-04-24 12:17 | 53.43219 | -6.24968 | 221 ft | 4 kts | 301° |
| 2026-04-24 12:17 | 53.43214 | -6.24950 | 216 ft | 1 kts | 275° |
| 2026-04-24 12:24 | 53.43215 | -6.24964 | 218 ft | 3 kts | 275° |
| 2026-04-24 12:24 | 53.43220 | -6.25045 | 213 ft | 11 kts | 275° |
| 2026-04-24 12:25 | 53.43227 | -6.25180 | 217 ft | 13 kts | 275° |
| 2026-04-24 12:25 | 53.43225 | -6.25330 | 215 ft | 13 kts | 247° |
| 2026-04-24 12:25 | 53.43185 | -6.25471 | 223 ft | 14 kts | 228° |
| 2026-04-24 12:25 | 53.43096 | -6.25465 | 216 ft | 14 kts | 158° |
| 2026-04-24 12:26 | 53.43000 | -6.25397 | 221 ft | 16 kts | 156° |
| 2026-04-24 12:26 | 53.42893 | -6.25316 | 216 ft | 18 kts | 155° |
| 2026-04-24 12:26 | 53.42785 | -6.25270 | 221 ft | 11 kts | 206° |
| 2026-04-24 12:26 | 53.42729 | -6.25365 | 216 ft | 12 kts | 227° |
| 2026-04-24 12:27 | 53.42669 | -6.25471 | 216 ft | 14 kts | 225° |
| 2026-04-24 12:27 | 53.42595 | -6.25596 | 213 ft | 16 kts | 224° |
| 2026-04-24 12:27 | 53.42509 | -6.25739 | 218 ft | 18 kts | 225° |
| 2026-04-24 12:27 | 53.42415 | -6.25898 | 213 ft | 20 kts | 225° |
| 2026-04-24 12:28 | 53.42312 | -6.26074 | 217 ft | 22 kts | 226° |
| 2026-04-24 12:28 | 53.42265 | -6.26270 | 216 ft | 18 kts | 274° |
| 2026-04-24 12:28 | 53.42278 | -6.26494 | 219 ft | 20 kts | 275° |
| 2026-04-24 12:28 | 53.42291 | -6.26739 | 213 ft | 22 kts | 275° |
| 2026-04-24 12:29 | 53.42306 | -6.27007 | 213 ft | 24 kts | 275° |
| 2026-04-24 12:29 | 53.42321 | -6.27293 | 213 ft | 26 kts | 275° |
| 2026-04-24 12:29 | 53.42337 | -6.27601 | 217 ft | 27 kts | 275° |
| 2026-04-24 12:29 | 53.42356 | -6.27926 | 215 ft | 29 kts | 275° |
| 2026-04-24 12:30 | 53.42375 | -6.28268 | 213 ft | 30 kts | 275° |
| 2026-04-24 12:30 | 53.42393 | -6.28585 | 213 ft | 20 kts | 275° |
| 2026-04-24 12:30 | 53.42406 | -6.28832 | 213 ft | 22 kts | 275° |
| 2026-04-24 12:30 | 53.42398 | -6.29025 | 213 ft | 14 kts | 233° |
| 2026-04-24 12:31 | 53.42350 | -6.29075 | 218 ft | 0 kts | 186° |
| 2026-04-24 12:31 | 53.42340 | -6.29077 | 218 ft | 4 kts | 185° |
| 2026-04-24 12:32 | 53.42293 | -6.29071 | 212 ft | 11 kts | 173° |
| 2026-04-24 12:32 | 53.42239 | -6.29026 | 213 ft | 3 kts | 108° |
| 2026-04-24 12:32 | 53.42239 | -6.28989 | 215 ft | 4 kts | 88° |
| 2026-04-24 12:32 | 53.42240 | -6.28932 | 218 ft | 6 kts | 90° |
| 2026-04-24 12:33 | 53.42236 | -6.28872 | 212 ft | 0 kts | 96° |
| 2026-04-24 12:33 | 53.42231 | -6.28806 | 214 ft | 28 kts | 96° |
| 2026-04-24 12:33 | 53.42187 | -6.28000 | 214 ft | 109 kts | 95° |
| 2026-04-24 12:33 | 53.42101 | -6.26366 | 317 ft | 163 kts | 95° |
| 2026-04-24 12:34 | 53.41986 | -6.24398 | 1042 ft | 180 kts | 96° |
| 2026-04-24 12:34 | 53.41867 | -6.22267 | 1959 ft | 184 kts | 99° |
| 2026-04-24 12:34 | 53.41737 | -6.20003 | 2623 ft | 209 kts | 97° |
| 2026-04-24 12:34 | 53.41599 | -6.17433 | 3276 ft | 233 kts | 98° |
| 2026-04-24 12:35 | 53.41450 | -6.14732 | 4412 ft | 234 kts | 98° |
| 2026-04-24 12:35 | 53.41295 | -6.11911 | 5268 ft | 252 kts | 97° |
| 2026-04-24 12:35 | 53.41133 | -6.08987 | 6292 ft | 256 kts | 98° |
| 2026-04-24 12:35 | 53.40967 | -6.06007 | 7346 ft | 260 kts | 98° |
| 2026-04-24 12:36 | 53.41017 | -6.02948 | 8324 ft | 268 kts | 81° |
| 2026-04-24 12:36 | 53.41826 | -6.00085 | 9312 ft | 281 kts | 53° |
| 2026-04-24 12:36 | 53.43424 | -5.98113 | 10261 ft | 295 kts | 25° |
| 2026-04-24 12:36 | 53.45496 | -5.97516 | 10936 ft | 316 kts | 358° |
| 2026-04-24 12:37 | 53.47744 | -5.98100 | 11407 ft | 336 kts | 356° |
| 2026-04-24 12:37 | 53.50136 | -5.98472 | 11836 ft | 355 kts | 357° |
| 2026-04-24 12:37 | 53.52627 | -5.98961 | 12421 ft | 368 kts | 352° |
| 2026-04-24 12:37 | 53.55153 | -5.99770 | 13306 ft | 370 kts | 351° |
| 2026-04-24 12:38 | 53.57659 | -6.00567 | 14118 ft | 374 kts | 352° |
| 2026-04-24 12:38 | 53.60232 | -6.01384 | 14844 ft | 377 kts | 351° |
| 2026-04-24 12:38 | 53.62825 | -6.02205 | 15574 ft | 381 kts | 351° |
| 2026-04-24 12:39 | 53.70759 | -6.04723 | 17647 ft | 392 kts | 351° |
| 2026-04-24 12:39 | 53.73465 | -6.05358 | 18307 ft | 394 kts | 360° |
| 2026-04-24 12:39 | 53.76219 | -6.05470 | 18910 ft | 398 kts | 0° |
| 2026-04-24 12:40 | 53.78958 | -6.05591 | 19496 ft | 400 kts | 0° |
| 2026-04-24 12:40 | 53.81748 | -6.05711 | 20110 ft | 402 kts | 0° |
| 2026-04-24 12:40 | 53.84549 | -6.05832 | 20692 ft | 404 kts | 0° |
| 2026-04-24 12:40 | 53.87374 | -6.05953 | 21259 ft | 407 kts | 0° |
| 2026-04-24 12:41 | 53.90213 | -6.06075 | 21836 ft | 410 kts | 0° |
| 2026-04-24 12:41 | 53.93072 | -6.06198 | 22404 ft | 412 kts | 0° |
| 2026-04-24 12:41 | 53.95950 | -6.06322 | 22965 ft | 415 kts | 0° |
| 2026-04-24 12:41 | 53.98844 | -6.06447 | 23517 ft | 417 kts | 0° |
| 2026-04-24 12:42 | 54.01753 | -6.06372 | 24019 ft | 418 kts | 10° |
| 2026-04-24 12:42 | 54.04531 | -6.05016 | 24461 ft | 417 kts | 25° |
| 2026-04-24 12:42 | 54.07147 | -6.02998 | 24817 ft | 421 kts | 26° |
| 2026-04-24 12:42 | 54.09813 | -6.00900 | 25195 ft | 425 kts | 26° |
| 2026-04-24 12:43 | 54.12509 | -5.98736 | 25291 ft | 432 kts | 26° |
| 2026-04-24 12:43 | 54.15252 | -5.96505 | 25294 ft | 442 kts | 26° |
| 2026-04-24 12:43 | 54.18046 | -5.94216 | 25296 ft | 449 kts | 26° |
| 2026-04-24 12:43 | 54.20869 | -5.91897 | 25306 ft | 452 kts | 26° |
| 2026-04-24 12:44 | 54.23710 | -5.89560 | 25316 ft | 452 kts | 26° |
| 2026-04-24 12:44 | 54.26540 | -5.87227 | 25321 ft | 452 kts | 26° |
| 2026-04-24 12:44 | 54.29371 | -5.84889 | 25322 ft | 452 kts | 26° |
| 2026-04-24 12:44 | 54.32171 | -5.82574 | 25326 ft | 452 kts | 27° |
| 2026-04-24 12:45 | 54.35002 | -5.80229 | 25324 ft | 452 kts | 27° |
| 2026-04-24 12:45 | 54.37835 | -5.77880 | 25319 ft | 452 kts | 27° |
| 2026-04-24 12:45 | 54.40660 | -5.75533 | 25325 ft | 452 kts | 26° |
| 2026-04-24 12:45 | 54.43495 | -5.73174 | 25322 ft | 452 kts | 27° |
| 2026-04-24 12:46 | 54.46322 | -5.70819 | 25333 ft | 452 kts | 27° |
| 2026-04-24 12:46 | 54.49153 | -5.68456 | 25321 ft | 452 kts | 27° |
| 2026-04-24 12:46 | 54.51974 | -5.66097 | 25322 ft | 452 kts | 27° |
| 2026-04-24 12:46 | 54.54805 | -5.63728 | 25322 ft | 452 kts | 27° |
| 2026-04-24 12:47 | 54.57593 | -5.61390 | 25334 ft | 452 kts | 27° |
| 2026-04-24 12:47 | 54.60239 | -5.58520 | 25321 ft | 449 kts | 41° |
| 2026-04-24 12:47 | 54.62600 | -5.55003 | 25331 ft | 450 kts | 41° |
| 2026-04-24 12:47 | 54.64975 | -5.51478 | 25329 ft | 450 kts | 42° |
| 2026-04-24 12:48 | 54.67338 | -5.47927 | 25333 ft | 451 kts | 42° |
| 2026-04-24 12:48 | 54.69699 | -5.44353 | 25339 ft | 451 kts | 41° |
| 2026-04-24 12:48 | 54.72057 | -5.40771 | 25345 ft | 451 kts | 42° |
| 2026-04-24 12:48 | 54.74404 | -5.37200 | 25332 ft | 442 kts | 42° |
| 2026-04-24 12:49 | 54.76676 | -5.33737 | 25037 ft | 431 kts | 42° |
| 2026-04-24 12:49 | 54.78918 | -5.30315 | 24466 ft | 428 kts | 42° |
| 2026-04-24 12:49 | 54.81114 | -5.26957 | 23918 ft | 425 kts | 42° |
| 2026-04-24 12:49 | 54.83326 | -5.23572 | 23243 ft | 423 kts | 42° |
| 2026-04-24 12:50 | 54.85523 | -5.20204 | 22647 ft | 420 kts | 42° |
| 2026-04-24 12:50 | 54.87718 | -5.16886 | 22066 ft | 417 kts | 38° |
| 2026-04-24 12:50 | 54.90214 | -5.14346 | 21424 ft | 416 kts | 26° |
| 2026-04-24 12:50 | 54.92778 | -5.12100 | 20926 ft | 412 kts | 27° |
| 2026-04-24 12:51 | 54.95336 | -5.09858 | 20391 ft | 409 kts | 27° |
| 2026-04-24 12:51 | 54.97843 | -5.07678 | 19850 ft | 408 kts | 27° |
| 2026-04-24 12:51 | 55.00373 | -5.05482 | 19307 ft | 406 kts | 27° |
| 2026-04-24 12:51 | 55.02848 | -5.03164 | 18962 ft | 399 kts | 34° |
| 2026-04-24 12:52 | 55.04931 | -5.00116 | 18811 ft | 386 kts | 44° |
| 2026-04-24 12:52 | 55.06869 | -4.96971 | 18653 ft | 376 kts | 43° |
| 2026-04-24 12:52 | 55.08830 | -4.93847 | 18422 ft | 389 kts | 43° |
| 2026-04-24 12:52 | 55.10851 | -4.90651 | 18214 ft | 395 kts | 42° |
| 2026-04-24 12:53 | 55.12893 | -4.87434 | 18025 ft | 396 kts | 42° |
| 2026-04-24 12:53 | 55.14939 | -4.84208 | 17640 ft | 395 kts | 42° |
| 2026-04-24 12:53 | 55.16969 | -4.81004 | 17157 ft | 392 kts | 42° |
| 2026-04-24 12:53 | 55.18961 | -4.77855 | 16670 ft | 389 kts | 41° |
| 2026-04-24 12:54 | 55.20965 | -4.74685 | 16174 ft | 387 kts | 41° |
| 2026-04-24 12:54 | 55.22951 | -4.71536 | 15690 ft | 385 kts | 41° |
| 2026-04-24 12:54 | 55.24930 | -4.68395 | 15208 ft | 383 kts | 41° |
| 2026-04-24 12:54 | 55.26896 | -4.65272 | 14754 ft | 381 kts | 41° |
| 2026-04-24 12:55 | 55.28854 | -4.62156 | 14263 ft | 379 kts | 41° |
| 2026-04-24 12:55 | 55.30800 | -4.59053 | 13760 ft | 378 kts | 41° |
| 2026-04-24 12:55 | 55.32740 | -4.55957 | 13264 ft | 375 kts | 41° |
| 2026-04-24 12:55 | 55.34661 | -4.52886 | 12799 ft | 372 kts | 41° |
| 2026-04-24 12:56 | 55.36543 | -4.49875 | 12357 ft | 369 kts | 41° |
| 2026-04-24 12:56 | 55.38434 | -4.46845 | 11919 ft | 367 kts | 41° |
| 2026-04-24 12:56 | 55.40304 | -4.43844 | 11622 ft | 359 kts | 41° |
| 2026-04-24 12:56 | 55.42120 | -4.40925 | 11472 ft | 349 kts | 41° |
| 2026-04-24 12:57 | 55.43887 | -4.38080 | 11297 ft | 339 kts | 41° |
| 2026-04-24 12:57 | 55.45605 | -4.35312 | 11147 ft | 330 kts | 41° |
| 2026-04-24 12:57 | 55.47279 | -4.32612 | 10968 ft | 322 kts | 41° |
| 2026-04-24 12:57 | 55.48363 | -4.30861 | 10871 ft | 316 kts | 41° |
| 2026-04-24 12:58 | 55.49961 | -4.28278 | 10717 ft | 308 kts | 41° |
| 2026-04-24 12:58 | 55.51517 | -4.25762 | 10573 ft | 299 kts | 41° |
| 2026-04-24 12:58 | 55.53513 | -4.22528 | 10384 ft | 289 kts | 41° |
| 2026-04-24 12:58 | 55.54976 | -4.20154 | 10188 ft | 283 kts | 41° |
| 2026-04-24 12:59 | 55.56421 | -4.17809 | 9857 ft | 282 kts | 41° |
| 2026-04-24 12:59 | 55.57397 | -4.16222 | 9639 ft | 281 kts | 41° |
| 2026-04-24 12:59 | 55.58813 | -4.13919 | 9321 ft | 280 kts | 41° |
| 2026-04-24 12:59 | 55.60243 | -4.11592 | 9034 ft | 278 kts | 41° |
| 2026-04-24 13:00 | 55.61665 | -4.09276 | 8744 ft | 278 kts | 41° |
| 2026-04-24 13:00 | 55.63085 | -4.06959 | 8440 ft | 277 kts | 41° |
| 2026-04-24 13:00 | 55.64499 | -4.04650 | 8136 ft | 276 kts | 41° |
| 2026-04-24 13:00 | 55.66357 | -4.01613 | 7762 ft | 273 kts | 41° |
| 2026-04-24 13:01 | 55.67749 | -3.99336 | 7473 ft | 272 kts | 41° |
| 2026-04-24 13:01 | 55.68686 | -3.97800 | 7282 ft | 271 kts | 41° |
| 2026-04-24 13:01 | 55.70051 | -3.95562 | 7009 ft | 271 kts | 42° |
| 2026-04-24 13:01 | 55.71434 | -3.93293 | 6687 ft | 271 kts | 42° |
| 2026-04-24 13:02 | 55.73284 | -3.90252 | 6112 ft | 271 kts | 41° |
| 2026-04-24 13:02 | 55.74197 | -3.88752 | 5807 ft | 268 kts | 41° |
| 2026-04-24 13:02 | 55.75533 | -3.86552 | 5619 ft | 255 kts | 41° |
| 2026-04-24 13:02 | 55.76793 | -3.84478 | 5499 ft | 238 kts | 41° |
| 2026-04-24 13:03 | 55.77955 | -3.82560 | 5340 ft | 219 kts | 41° |
| 2026-04-24 13:03 | 55.79030 | -3.80794 | 5225 ft | 201 kts | 41° |
| 2026-04-24 13:03 | 55.80010 | -3.79177 | 5103 ft | 188 kts | 42° |
| 2026-04-24 13:03 | 55.80909 | -3.77505 | 4972 ft | 187 kts | 47° |
| 2026-04-24 13:04 | 55.81724 | -3.75698 | 4811 ft | 187 kts | 51° |
| 2026-04-24 13:04 | 55.82476 | -3.73818 | 4588 ft | 186 kts | 54° |
| 2026-04-24 13:04 | 55.83190 | -3.71895 | 4348 ft | 186 kts | 56° |
| 2026-04-24 13:04 | 55.83878 | -3.69957 | 4122 ft | 185 kts | 57° |
| 2026-04-24 13:05 | 55.84552 | -3.68008 | 3884 ft | 185 kts | 57° |
| 2026-04-24 13:05 | 55.85208 | -3.66091 | 3639 ft | 183 kts | 58° |
| 2026-04-24 13:05 | 55.85870 | -3.64157 | 3450 ft | 183 kts | 57° |
| 2026-04-24 13:05 | 55.86536 | -3.62217 | 3177 ft | 184 kts | 58° |
| 2026-04-24 13:06 | 55.87186 | -3.60279 | 2976 ft | 183 kts | 58° |
| 2026-04-24 13:06 | 55.87839 | -3.58361 | 2780 ft | 176 kts | 58° |
| 2026-04-24 13:06 | 55.88459 | -3.56540 | 2493 ft | 169 kts | 58° |
| 2026-04-24 13:06 | 55.89069 | -3.54752 | 2274 ft | 169 kts | 58° |
| 2026-04-24 13:07 | 55.89670 | -3.52978 | 2018 ft | 166 kts | 58° |
| 2026-04-24 13:07 | 55.90264 | -3.51225 | 1799 ft | 161 kts | 58° |
| 2026-04-24 13:07 | 55.90816 | -3.49596 | 1585 ft | 149 kts | 58° |
| 2026-04-24 13:07 | 55.91343 | -3.48045 | 1372 ft | 144 kts | 58° |
| 2026-04-24 13:08 | 55.91861 | -3.46528 | 1169 ft | 143 kts | 58° |
| 2026-04-24 13:08 | 55.92368 | -3.45019 | 987 ft | 142 kts | 59° |
| 2026-04-24 13:08 | 55.92861 | -3.43548 | 806 ft | 139 kts | 59° |
| 2026-04-24 13:09 | 55.93854 | -3.40624 | 401 ft | 135 kts | 59° |
| 2026-04-24 13:09 | 55.94336 | -3.39208 | 220 ft | 133 kts | 58° |
| 2026-04-24 13:09 | 55.94795 | -3.37853 | 115 ft | 108 kts | 59° |
| 2026-04-24 13:09 | 55.95066 | -3.37059 | 114 ft | 43 kts | 59° |
| 2026-04-24 13:10 | 55.95209 | -3.36634 | 115 ft | 37 kts | 59° |
| 2026-04-24 13:10 | 55.95241 | -3.36407 | 112 ft | 11 kts | 133° |
| 2026-04-24 13:10 | 55.95211 | -3.36370 | 115 ft | 1 kts | 148° |
| 2026-04-24 13:10 | 55.95180 | -3.36336 | 117 ft | 10 kts | 148° |
| 2026-04-24 13:11 | 55.95111 | -3.36339 | 117 ft | 11 kts | 236° |
| 2026-04-24 13:11 | 55.95052 | -3.36520 | 116 ft | 21 kts | 239° |
| 2026-04-24 13:11 | 55.94979 | -3.36741 | 117 ft | 15 kts | 239° |
| 2026-04-24 13:11 | 55.94911 | -3.36819 | 115 ft | 12 kts | 156° |
| 2026-04-24 13:12 | 55.94845 | -3.36779 | 118 ft | 11 kts | 178° |
| 2026-04-24 13:12 | 55.94766 | -3.36756 | 115 ft | 12 kts | 152° |
| 2026-04-24 13:12 | 55.94683 | -3.36734 | 119 ft | 10 kts | 178° |
| 2026-04-24 13:12 | 55.94622 | -3.36732 | 119 ft | 5 kts | 165° |
| 2026-04-24 13:13 | 55.94611 | -3.36676 | 119 ft | 5 kts | 89° |
| 2026-04-24 13:13 | 55.94612 | -3.36636 | 119 ft | 0 kts | 89° |
| 2026-04-24 13:13 | 55.94612 | -3.36635 | 119 ft | 0 kts | 89° |